Marchen Maersk — OWUJ2 — position and weather

sailwx.info

Track history (hours):
 
Tides and Currents Weather Stations Pressure Air Temp Water Temp Dewpoint Dewpoint Depression Visibility Wind Speed Wind Dir Waves Ship Positions

Marchen Maersk

Last reported at 2017-Oct-18 22:05 UTC. Time now 2017-Oct-23 04:31 UTC.
Position N 36°15' E 015°17'.

Length 399 m; draft 15.9 m.

Type: Ship. MMSI: 219630000.

Date/timePositionNaut miles runAvg speedWind from/ knotsBaromVisibWave heightAir tempDewpointWater temp
2017-Oct-18 22:05N 36°15' E 015°17'719.7
2017-Oct-18 21:43N 36°17' E 015°09'419.6
2017-Oct-18 21:30N 36°19' E 015°04'1219.9
2017-Oct-18 20:56N 36°22' E 014°50'920.3
2017-Oct-18 20:30N 36°25' E 014°40'1020.5
2017-Oct-18 20:00N 36°28' E 014°27'1020.4
2017-Oct-18 19:30N 36°31' E 014°16'1019.9
2017-Oct-18 19:00N 36°34' E 014°04'1019.6
2017-Oct-18 18:30N 36°37' E 013°52'1019.6
2017-Oct-18 18:00N 36°41' E 013°41'1019.6
2017-Oct-18 17:30N 36°43' E 013°29'1019.4
2017-Oct-18 17:00N 36°47' E 013°18'1019.5
2017-Oct-18 16:30N 36°50' E 013°06'1119.4
2017-Oct-18 15:55N 36°54' E 012°53'819.3
2017-Oct-18 15:30N 36°57' E 012°43'24618.5
2017-Oct-18 02:13N 37°18' E 007°36'418.7
2017-Oct-18 01:59N 37°18' E 007°31'7019.2
2017-Oct-17 22:19N 37°16' E 006°02'619.1
2017-Oct-17 21:59N 37°16' E 005°54'7118.6
2017-Oct-17 18:10N 37°12' E 004°25'46319.0
2017-Oct-16 17:47N 36°01' W 005°05'518.2
2017-Oct-16 17:30N 35°60' W 005°11'1020.4
2017-Oct-16 17:00N 35°58' W 005°23'1320.3
2017-Oct-16 16:22N 35°55' W 005°39'1819.0
2017-Oct-16 15:25N 35°55' W 006°01'6718.0
2017-Oct-16 11:42N 36°10' W 007°22'817.9
2017-Oct-16 11:15N 36°12' W 007°32'517.9
2017-Oct-16 10:59N 36°13' W 007°37'1118.0
2017-Oct-16 10:22N 36°16' W 007°51'717.8
2017-Oct-16 10:00N 36°17' W 007°58'2318.5
2017-Oct-16 08:45N 36°23' W 008°26'718.3
2017-Oct-16 08:21N 36°25' W 008°35'1318.4
2017-Oct-16 07:38N 36°28' W 008°51'319.1
2017-Oct-16 07:30N 36°29' W 008°54'1119.6
2017-Oct-16 06:56N 36°32' W 009°07'819.3
2017-Oct-16 06:30N 36°35' W 009°17'1019.1
2017-Oct-16 06:00N 36°42' W 009°25'1018.9
2017-Oct-16 05:27N 36°50' W 009°32'3119.2
2017-Oct-16 03:51N 37°20' W 009°41'1019.0
2017-Oct-16 03:19N 37°30' W 009°44'619.3
2017-Oct-16 03:00N 37°36' W 009°47'1019.4
2017-Oct-16 02:30N 37°45' W 009°50'1019.1
2017-Oct-16 02:00N 37°54' W 009°53'1019.4
2017-Oct-16 01:30N 38°04' W 009°56'1019.6
2017-Oct-16 01:00N 38°13' W 009°59'1019.4
2017-Oct-16 00:30N 38°23' W 010°01'1019.1
2017-Oct-16 00:00N 38°32' W 010°04'1019.3
2017-Oct-15 23:30N 38°42' W 010°06'918.9
2017-Oct-15 23:00N 38°51' W 010°07'918.7
2017-Oct-15 22:30N 39°00' W 010°07'1019.1
2017-Oct-15 22:00N 39°10' W 010°06'918.9
2017-Oct-15 21:30N 39°19' W 010°06'918.5
2017-Oct-15 21:00N 39°29' W 010°05'918.2
2017-Oct-15 20:30N 39°38' W 010°05'918.2
2017-Oct-15 20:00N 39°47' W 010°05'918.3
2017-Oct-15 19:30N 39°56' W 010°05'918.6
2017-Oct-15 19:00N 40°05' W 010°05'918.0
2017-Oct-15 18:30N 40°14' W 010°05'917.6
2017-Oct-15 18:00N 40°23' W 010°05'31317.9
2017-Oct-15 00:30N 45°28' W 008°27'918.6
2017-Oct-15 00:01N 45°36' W 008°21'918.4
2017-Oct-14 23:30N 45°44' W 008°14'918.8
2017-Oct-14 23:00N 45°52' W 008°08'918.9
2017-Oct-14 22:31N 46°01' W 008°02'918.5
2017-Oct-14 22:01N 46°09' W 007°55'11718.9
2017-Oct-14 15:48N 47°53' W 006°35'5119.6
2017-Oct-14 13:13N 48°37' W 005°58'519.2
2017-Oct-14 12:56N 48°41' W 005°54'918.9
2017-Oct-14 12:27N 48°49' W 005°47'817.5
2017-Oct-14 12:00N 48°55' W 005°39'916.7
2017-Oct-14 11:27N 48°60' W 005°26'716.5
2017-Oct-14 11:00N 49°03' W 005°17'816.6
2017-Oct-14 10:30N 49°08' W 005°06'816.4
2017-Oct-14 10:00N 49°12' W 004°55'816.7
2017-Oct-14 09:30N 49°16' W 004°44'817.0
2017-Oct-14 09:00N 49°20' W 004°33'917.3
2017-Oct-14 08:31N 49°25' W 004°22'917.6
2017-Oct-14 08:01N 49°30' W 004°10'918.1
2017-Oct-14 07:30N 49°34' W 003°58'918.4
2017-Oct-14 07:00N 49°39' W 003°46'918.5
2017-Oct-14 06:31N 49°44' W 003°34'918.3
2017-Oct-14 06:01N 49°48' W 003°21'918.2
2017-Oct-14 05:30N 49°52' W 003°09'917.7
2017-Oct-14 05:01N 49°57' W 002°57'917.4
2017-Oct-14 04:31N 49°59' W 002°44'917.0
2017-Oct-14 04:00N 50°02' W 002°31'1016.5
2017-Oct-14 03:24N 50°04' W 002°16'616.0
2017-Oct-14 03:01N 50°05' W 002°07'815.8
2017-Oct-14 02:31N 50°07' W 001°55'815.6
2017-Oct-14 02:00N 50°08' W 001°43'815.9
2017-Oct-14 01:31N 50°11' W 001°31'816.4
2017-Oct-14 01:01N 50°13' W 001°19'916.9
2017-Oct-14 00:29N 50°16' W 001°05'817.6
2017-Oct-14 00:00N 50°18' W 000°53'917.9
2017-Oct-13 23:30N 50°21' W 000°39'918.3
2017-Oct-13 23:01N 50°23' W 000°25'918.4
2017-Oct-13 22:30N 50°26' W 000°12'918.7
2017-Oct-13 22:00N 50°28' E 000°02'918.9
2017-Oct-13 21:30N 50°31' E 000°17'918.7
2017-Oct-13 21:01N 50°34' E 000°31'918.4
2017-Oct-13 20:31N 50°39' E 000°42'917.9
2017-Oct-13 20:01N 50°44' E 000°54'816.9
2017-Oct-13 19:31N 50°49' E 001°05'816.2
2017-Oct-13 19:01N 50°54' E 001°16'815.4
2017-Oct-13 18:30N 50°59' E 001°24'715.0
2017-Oct-13 18:01N 51°04' E 001°33'715.0
2017-Oct-13 17:31N 51°10' E 001°41'815.3
2017-Oct-13 17:00N 51°16' E 001°49'816.2
2017-Oct-13 16:31N 51°23' E 001°55'817.0
2017-Oct-13 16:01N 51°29' E 002°04'917.6
2017-Oct-13 15:31N 51°36' E 002°14'918.0
2017-Oct-13 15:00N 51°42' E 002°23'918.2
2017-Oct-13 14:30N 51°49' E 002°33'1217.5
2017-Oct-13 13:48N 51°57' E 002°49'716.8
2017-Oct-13 13:24N 51°58' E 002°60'716.3
2017-Oct-13 13:00N 51°58' E 003°10'815.7
2017-Oct-13 12:30N 51°59' E 003°23'815.2
2017-Oct-13 12:00N 52°00' E 003°35'713.9
2017-Oct-13 11:30N 52°01' E 003°46'5 9.6
2017-Oct-13 11:00N 52°02' E 003°54'5 9.7
2017-Oct-13 10:30N 51°60' E 004°01'3 5.6
2017-Oct-13 10:00N 51°58' E 004°04'3 5.0
2017-Oct-13 09:30N 51°59' E 004°00'1 2.1
2017-Oct-13 08:59N 51°57' E 004°00'0 0.0
2017-Oct-13 08:29N 51°57' E 004°00'0 0.0
2017-Oct-13 07:59N 51°57' E 004°00'0 0.0
2017-Oct-13 07:29N 51°57' E 004°00'0 0.0
2017-Oct-13 06:59N 51°57' E 004°00'0 0.0
2017-Oct-13 06:29N 51°57' E 004°00'0 0.0
2017-Oct-13 05:59N 51°57' E 004°00'0 0.0
2017-Oct-13 05:29N 51°57' E 004°00'0 0.0
2017-Oct-13 04:59N 51°57' E 004°00'0 0.0
2017-Oct-13 04:29N 51°57' E 004°00'0 0.0
2017-Oct-13 03:59N 51°57' E 004°00'0 0.0
2017-Oct-13 03:29N 51°57' E 004°00'0 0.0
2017-Oct-13 02:56N 51°57' E 004°00'0 0.0
2017-Oct-13 02:29N 51°57' E 004°00'0 0.0
2017-Oct-13 01:59N 51°57' E 004°00'0 0.0
2017-Oct-13 01:29N 51°57' E 004°00'0 0.0
2017-Oct-13 00:59N 51°57' E 004°00'0 0.0
2017-Oct-13 00:29N 51°57' E 004°00'0 0.0
2017-Oct-12 23:59N 51°57' E 004°00'0 0.0
2017-Oct-12 23:29N 51°57' E 004°00'0 0.0
2017-Oct-12 22:59N 51°57' E 004°00'0 0.0
2017-Oct-12 22:29N 51°57' E 004°00'0 0.0
2017-Oct-12 21:59N 51°57' E 004°00'0 0.0
2017-Oct-12 21:29N 51°57' E 004°00'0 0.0
2017-Oct-12 20:59N 51°57' E 004°00'0 0.0
2017-Oct-12 20:29N 51°57' E 004°00'0 0.0
2017-Oct-12 19:59N 51°57' E 004°00'0 0.0
2017-Oct-12 19:29N 51°57' E 004°00'0 0.0
2017-Oct-12 18:59N 51°57' E 004°00'0 0.0
2017-Oct-12 18:29N 51°57' E 004°00'0 0.0
2017-Oct-12 17:59N 51°57' E 004°00'0 0.0
2017-Oct-12 17:29N 51°57' E 004°00'0 0.0
2017-Oct-12 16:59N 51°57' E 004°00'0 0.0
2017-Oct-12 16:29N 51°57' E 004°00'0 0.0
2017-Oct-12 15:59N 51°57' E 004°00'0 0.0
2017-Oct-12 15:29N 51°57' E 004°00'0 0.0
2017-Oct-12 14:59N 51°57' E 004°00'0 0.0
2017-Oct-12 14:29N 51°57' E 004°00'0 0.0
2017-Oct-12 13:59N 51°57' E 004°00'0 0.0
2017-Oct-12 13:29N 51°57' E 004°00'0 0.0
2017-Oct-12 12:59N 51°57' E 004°00'0 0.0
2017-Oct-12 12:29N 51°57' E 004°00'0 0.0
2017-Oct-12 11:59N 51°57' E 004°00'0 0.0
2017-Oct-12 11:29N 51°57' E 004°00'0 0.0
2017-Oct-12 10:59N 51°57' E 004°00'0 0.0
2017-Oct-12 10:29N 51°57' E 004°00'0 0.0
2017-Oct-12 09:59N 51°57' E 004°00'0 0.0
2017-Oct-12 09:29N 51°57' E 004°00'0 0.0
2017-Oct-12 08:59N 51°57' E 004°00'0 0.0
2017-Oct-12 08:29N 51°57' E 004°00'0 0.0
2017-Oct-12 07:59N 51°57' E 004°00'0 0.0
2017-Oct-12 07:29N 51°57' E 004°00'0 0.0
2017-Oct-12 06:59N 51°57' E 004°00'0 0.0
2017-Oct-12 06:29N 51°57' E 004°00'0 0.0
2017-Oct-12 05:59N 51°57' E 004°00'0 0.0
2017-Oct-12 05:29N 51°57' E 004°00'0 0.0
2017-Oct-12 04:59N 51°57' E 004°00'0 0.0
2017-Oct-12 04:29N 51°57' E 004°00'0 0.0
2017-Oct-12 03:59N 51°57' E 004°00'0 0.0
2017-Oct-12 03:29N 51°57' E 004°00'0 0.0
2017-Oct-12 02:59N 51°57' E 004°00'0 0.0
2017-Oct-12 02:29N 51°57' E 004°00'0 0.0
2017-Oct-12 01:59N 51°57' E 004°00'0 0.0
2017-Oct-12 01:29N 51°57' E 004°00'0 0.0
2017-Oct-12 00:59N 51°57' E 004°00'0 0.0
2017-Oct-12 00:29N 51°57' E 004°00'0 0.0
2017-Oct-11 23:59N 51°57' E 004°00'0 0.0
2017-Oct-11 23:29N 51°57' E 004°00'0 0.0
2017-Oct-11 22:59N 51°57' E 004°00'0 0.0
2017-Oct-11 22:29N 51°57' E 004°00'0 0.0
2017-Oct-11 21:59N 51°57' E 004°00'0 0.0
2017-Oct-11 21:29N 51°57' E 004°00'0 0.0
2017-Oct-11 20:59N 51°57' E 004°00'0 0.0
2017-Oct-11 20:29N 51°57' E 004°00'0 0.0
2017-Oct-11 19:59N 51°57' E 004°00'0 0.0
2017-Oct-11 19:29N 51°57' E 004°00'0 0.0
2017-Oct-11 18:59N 51°57' E 004°00'0 0.0
2017-Oct-11 18:29N 51°57' E 004°00'0 0.0
2017-Oct-11 17:59N 51°57' E 004°00'0 0.0
2017-Oct-11 17:29N 51°57' E 004°00'0 0.0
2017-Oct-11 16:59N 51°57' E 004°00'85 5.0
2017-Oct-11 00:00N 53°20' E 004°33'711.0
2017-Oct-10 23:22N 53°26' E 004°37'4 9.9
2017-Oct-10 23:00N 53°29' E 004°42'5 9.4
2017-Oct-10 22:30N 53°31' E 004°48'5 9.3
2017-Oct-10 22:00N 53°33' E 004°56'5 9.3
2017-Oct-10 21:31N 53°35' E 005°03'4 8.5
2017-Oct-10 21:01N 53°36' E 005°10'4 8.1
2017-Oct-10 20:30N 53°38' E 005°16'4 7.3
2017-Oct-10 20:01N 53°39' E 005°22'4 7.4
2017-Oct-10 19:29N 53°41' E 005°27'71 4.3
2017-Oct-10 03:01N 53°58' E 007°23'0 9.5
2017-Oct-10 03:00N 53°58' E 007°24'6 9.1
2017-Oct-10 02:21N 53°59' E 007°33'3 9.1
2017-Oct-10 02:00N 53°59' E 007°39'714.0
2017-Oct-10 01:30N 53°53' E 007°45'713.8
2017-Oct-10 01:00N 53°52' E 007°56'613.0
2017-Oct-10 00:30N 53°49' E 008°07'612.4
2017-Oct-10 00:00N 53°45' E 008°13'611.6
2017-Oct-09 23:30N 53°41' E 008°21'510.3
2017-Oct-09 23:00N 53°38' E 008°28'3 6.7
2017-Oct-09 22:30N 53°35' E 008°31'0 0.8
2017-Oct-09 22:01N 53°35' E 008°32'0 0.0
2017-Oct-09 21:30N 53°35' E 008°32'0 0.0
2017-Oct-09 21:01N 53°35' E 008°32'0 0.0
2017-Oct-09 20:30N 53°35' E 008°32'0 0.0
2017-Oct-09 20:00N 53°35' E 008°32'0 0.0
2017-Oct-09 19:31N 53°35' E 008°32'0 0.0
2017-Oct-09 19:00N 53°35' E 008°32'0 0.0
2017-Oct-09 18:30N 53°35' E 008°32'0 0.0
2017-Oct-09 18:01N 53°35' E 008°32'0 0.0
2017-Oct-09 17:30N 53°35' E 008°32'0 0.0
2017-Oct-09 17:00N 53°35' E 008°32'0 0.0
2017-Oct-09 16:30N 53°35' E 008°32'0 0.0
2017-Oct-09 16:00N 53°35' E 008°32'0 0.0
2017-Oct-09 15:30N 53°35' E 008°32'0 0.0
2017-Oct-09 15:00N 53°35' E 008°32'0 0.0
2017-Oct-09 14:30N 53°35' E 008°32'0 0.0
2017-Oct-09 14:01N 53°35' E 008°32'0 0.0
2017-Oct-09 13:30N 53°35' E 008°32'0 0.0
2017-Oct-09 13:00N 53°35' E 008°32'0 0.0
2017-Oct-09 12:30N 53°35' E 008°32'0 0.0
2017-Oct-09 12:01N 53°35' E 008°32'0 0.0
2017-Oct-09 11:30N 53°35' E 008°32'0 0.0
2017-Oct-09 11:00N 53°35' E 008°32'0 0.0
2017-Oct-09 10:30N 53°35' E 008°32'0 0.0
2017-Oct-09 10:00N 53°35' E 008°32'0 0.0
2017-Oct-09 09:30N 53°35' E 008°32'0 0.0
2017-Oct-09 09:00N 53°35' E 008°32'0 0.0
2017-Oct-09 08:30N 53°35' E 008°32'0 0.0
2017-Oct-09 08:00N 53°35' E 008°32'0 0.0
2017-Oct-09 07:30N 53°35' E 008°32'0 0.0
2017-Oct-09 07:00N 53°35' E 008°32'0 0.0
2017-Oct-09 06:31N 53°35' E 008°32'0 0.0
2017-Oct-09 06:01N 53°35' E 008°32'0 0.0
2017-Oct-09 05:31N 53°35' E 008°32'0 0.0
2017-Oct-09 05:00N 53°35' E 008°32'0 0.0
2017-Oct-09 04:30N 53°35' E 008°32'0 0.0
2017-Oct-09 04:00N 53°35' E 008°32'0 0.0
2017-Oct-09 03:30N 53°35' E 008°32'0 0.0
2017-Oct-09 03:01N 53°35' E 008°32'0 0.0
2017-Oct-09 02:30N 53°35' E 008°32'0 0.0
2017-Oct-09 02:01N 53°35' E 008°32'0 0.0
2017-Oct-09 01:31N 53°35' E 008°32'0 0.0
2017-Oct-09 01:00N 53°35' E 008°32'0 0.0
2017-Oct-09 00:30N 53°35' E 008°32'0 0.0
2017-Oct-09 00:01N 53°35' E 008°32'0 0.0
2017-Oct-08 23:31N 53°35' E 008°32'0 0.0
2017-Oct-08 23:00N 53°35' E 008°32'0 0.0
2017-Oct-08 22:30N 53°35' E 008°32'  
Track history (hours):
 
Tides and Currents Weather Stations Pressure Air Temp Water Temp Dewpoint Dewpoint Depression Visibility Wind Speed Wind Dir Waves Ship Positions

Marchen Maersk

Last reported at 2017-Oct-18 22:05 UTC. Time now 2017-Oct-23 04:31 UTC.
Position N 36°15' E 015°17'.

Length 399 m; draft 15.9 m.

Type: Ship. MMSI: 219630000.

Date/timePositionNaut miles runAvg speedWind from/ knotsBaromVisibWave heightAir tempDewpointWater temp
2017-Oct-18 22:05N 36°15' E 015°17'719.7
2017-Oct-18 21:43N 36°17' E 015°09'419.6
2017-Oct-18 21:30N 36°19' E 015°04'1219.9
2017-Oct-18 20:56N 36°22' E 014°50'920.3
2017-Oct-18 20:30N 36°25' E 014°40'1020.5
2017-Oct-18 20:00N 36°28' E 014°27'1020.4
2017-Oct-18 19:30N 36°31' E 014°16'1019.9
2017-Oct-18 19:00N 36°34' E 014°04'1019.6
2017-Oct-18 18:30N 36°37' E 013°52'1019.6
2017-Oct-18 18:00N 36°41' E 013°41'1019.6
2017-Oct-18 17:30N 36°43' E 013°29'1019.4
2017-Oct-18 17:00N 36°47' E 013°18'1019.5
2017-Oct-18 16:30N 36°50' E 013°06'1119.4
2017-Oct-18 15:55N 36°54' E 012°53'819.3
2017-Oct-18 15:30N 36°57' E 012°43'24618.5
2017-Oct-18 02:13N 37°18' E 007°36'418.7
2017-Oct-18 01:59N 37°18' E 007°31'7019.2
2017-Oct-17 22:19N 37°16' E 006°02'619.1
2017-Oct-17 21:59N 37°16' E 005°54'7118.6
2017-Oct-17 18:10N 37°12' E 004°25'46319.0
2017-Oct-16 17:47N 36°01' W 005°05'518.2
2017-Oct-16 17:30N 35°60' W 005°11'1020.4
2017-Oct-16 17:00N 35°58' W 005°23'1320.3
2017-Oct-16 16:22N 35°55' W 005°39'1819.0
2017-Oct-16 15:25N 35°55' W 006°01'6718.0
2017-Oct-16 11:42N 36°10' W 007°22'817.9
2017-Oct-16 11:15N 36°12' W 007°32'517.9
2017-Oct-16 10:59N 36°13' W 007°37'1118.0
2017-Oct-16 10:22N 36°16' W 007°51'717.8
2017-Oct-16 10:00N 36°17' W 007°58'2318.5
2017-Oct-16 08:45N 36°23' W 008°26'718.3
2017-Oct-16 08:21N 36°25' W 008°35'1318.4
2017-Oct-16 07:38N 36°28' W 008°51'319.1
2017-Oct-16 07:30N 36°29' W 008°54'1119.6
2017-Oct-16 06:56N 36°32' W 009°07'819.3
2017-Oct-16 06:30N 36°35' W 009°17'1019.1
2017-Oct-16 06:00N 36°42' W 009°25'1018.9
2017-Oct-16 05:27N 36°50' W 009°32'3119.2
2017-Oct-16 03:51N 37°20' W 009°41'1019.0
2017-Oct-16 03:19N 37°30' W 009°44'619.3
2017-Oct-16 03:00N 37°36' W 009°47'1019.4
2017-Oct-16 02:30N 37°45' W 009°50'1019.1
2017-Oct-16 02:00N 37°54' W 009°53'1019.4
2017-Oct-16 01:30N 38°04' W 009°56'1019.6
2017-Oct-16 01:00N 38°13' W 009°59'1019.4
2017-Oct-16 00:30N 38°23' W 010°01'1019.1
2017-Oct-16 00:00N 38°32' W 010°04'1019.3
2017-Oct-15 23:30N 38°42' W 010°06'918.9
2017-Oct-15 23:00N 38°51' W 010°07'918.7
2017-Oct-15 22:30N 39°00' W 010°07'1019.1
2017-Oct-15 22:00N 39°10' W 010°06'918.9
2017-Oct-15 21:30N 39°19' W 010°06'918.5
2017-Oct-15 21:00N 39°29' W 010°05'918.2
2017-Oct-15 20:30N 39°38' W 010°05'918.2
2017-Oct-15 20:00N 39°47' W 010°05'918.3
2017-Oct-15 19:30N 39°56' W 010°05'918.6
2017-Oct-15 19:00N 40°05' W 010°05'918.0
2017-Oct-15 18:30N 40°14' W 010°05'917.6
2017-Oct-15 18:00N 40°23' W 010°05'31317.9
2017-Oct-15 00:30N 45°28' W 008°27'918.6
2017-Oct-15 00:01N 45°36' W 008°21'918.4
2017-Oct-14 23:30N 45°44' W 008°14'918.8
2017-Oct-14 23:00N 45°52' W 008°08'918.9
2017-Oct-14 22:31N 46°01' W 008°02'918.5
2017-Oct-14 22:01N 46°09' W 007°55'11718.9
2017-Oct-14 15:48N 47°53' W 006°35'5119.6
2017-Oct-14 13:13N 48°37' W 005°58'519.2
2017-Oct-14 12:56N 48°41' W 005°54'918.9
2017-Oct-14 12:27N 48°49' W 005°47'817.5
2017-Oct-14 12:00N 48°55' W 005°39'916.7
2017-Oct-14 11:27N 48°60' W 005°26'716.5
2017-Oct-14 11:00N 49°03' W 005°17'816.6
2017-Oct-14 10:30N 49°08' W 005°06'816.4
2017-Oct-14 10:00N 49°12' W 004°55'816.7
2017-Oct-14 09:30N 49°16' W 004°44'817.0
2017-Oct-14 09:00N 49°20' W 004°33'917.3
2017-Oct-14 08:31N 49°25' W 004°22'917.6
2017-Oct-14 08:01N 49°30' W 004°10'918.1
2017-Oct-14 07:30N 49°34' W 003°58'918.4
2017-Oct-14 07:00N 49°39' W 003°46'918.5
2017-Oct-14 06:31N 49°44' W 003°34'918.3
2017-Oct-14 06:01N 49°48' W 003°21'918.2
2017-Oct-14 05:30N 49°52' W 003°09'917.7
2017-Oct-14 05:01N 49°57' W 002°57'917.4
2017-Oct-14 04:31N 49°59' W 002°44'917.0
2017-Oct-14 04:00N 50°02' W 002°31'1016.5
2017-Oct-14 03:24N 50°04' W 002°16'616.0
2017-Oct-14 03:01N 50°05' W 002°07'815.8
2017-Oct-14 02:31N 50°07' W 001°55'815.6
2017-Oct-14 02:00N 50°08' W 001°43'815.9
2017-Oct-14 01:31N 50°11' W 001°31'816.4
2017-Oct-14 01:01N 50°13' W 001°19'916.9
2017-Oct-14 00:29N 50°16' W 001°05'817.6
2017-Oct-14 00:00N 50°18' W 000°53'917.9
2017-Oct-13 23:30N 50°21' W 000°39'918.3
2017-Oct-13 23:01N 50°23' W 000°25'918.4
2017-Oct-13 22:30N 50°26' W 000°12'918.7
2017-Oct-13 22:00N 50°28' E 000°02'918.9
2017-Oct-13 21:30N 50°31' E 000°17'918.7
2017-Oct-13 21:01N 50°34' E 000°31'918.4
2017-Oct-13 20:31N 50°39' E 000°42'917.9
2017-Oct-13 20:01N 50°44' E 000°54'816.9
2017-Oct-13 19:31N 50°49' E 001°05'816.2
2017-Oct-13 19:01N 50°54' E 001°16'815.4
2017-Oct-13 18:30N 50°59' E 001°24'715.0
2017-Oct-13 18:01N 51°04' E 001°33'715.0
2017-Oct-13 17:31N 51°10' E 001°41'815.3
2017-Oct-13 17:00N 51°16' E 001°49'816.2
2017-Oct-13 16:31N 51°23' E 001°55'817.0
2017-Oct-13 16:01N 51°29' E 002°04'917.6
2017-Oct-13 15:31N 51°36' E 002°14'918.0
2017-Oct-13 15:00N 51°42' E 002°23'918.2
2017-Oct-13 14:30N 51°49' E 002°33'1217.5
2017-Oct-13 13:48N 51°57' E 002°49'716.8
2017-Oct-13 13:24N 51°58' E 002°60'716.3
2017-Oct-13 13:00N 51°58' E 003°10'815.7
2017-Oct-13 12:30N 51°59' E 003°23'815.2
2017-Oct-13 12:00N 52°00' E 003°35'713.9
2017-Oct-13 11:30N 52°01' E 003°46'5 9.6
2017-Oct-13 11:00N 52°02' E 003°54'5 9.7
2017-Oct-13 10:30N 51°60' E 004°01'3 5.6
2017-Oct-13 10:00N 51°58' E 004°04'3 5.0
2017-Oct-13 09:30N 51°59' E 004°00'1 2.1
2017-Oct-13 08:59N 51°57' E 004°00'0 0.0
2017-Oct-13 08:29N 51°57' E 004°00'0 0.0
2017-Oct-13 07:59N 51°57' E 004°00'0 0.0
2017-Oct-13 07:29N 51°57' E 004°00'0 0.0
2017-Oct-13 06:59N 51°57' E 004°00'0 0.0
2017-Oct-13 06:29N 51°57' E 004°00'0 0.0
2017-Oct-13 05:59N 51°57' E 004°00'0 0.0
2017-Oct-13 05:29N 51°57' E 004°00'0 0.0
2017-Oct-13 04:59N 51°57' E 004°00'0 0.0
2017-Oct-13 04:29N 51°57' E 004°00'0 0.0
2017-Oct-13 03:59N 51°57' E 004°00'0 0.0
2017-Oct-13 03:29N 51°57' E 004°00'0 0.0
2017-Oct-13 02:56N 51°57' E 004°00'0 0.0
2017-Oct-13 02:29N 51°57' E 004°00'0 0.0
2017-Oct-13 01:59N 51°57' E 004°00'0 0.0
2017-Oct-13 01:29N 51°57' E 004°00'0 0.0
2017-Oct-13 00:59N 51°57' E 004°00'0 0.0
2017-Oct-13 00:29N 51°57' E 004°00'0 0.0
2017-Oct-12 23:59N 51°57' E 004°00'0 0.0
2017-Oct-12 23:29N 51°57' E 004°00'0 0.0
2017-Oct-12 22:59N 51°57' E 004°00'0 0.0
2017-Oct-12 22:29N 51°57' E 004°00'0 0.0
2017-Oct-12 21:59N 51°57' E 004°00'0 0.0
2017-Oct-12 21:29N 51°57' E 004°00'0 0.0
2017-Oct-12 20:59N 51°57' E 004°00'0 0.0
2017-Oct-12 20:29N 51°57' E 004°00'0 0.0
2017-Oct-12 19:59N 51°57' E 004°00'0 0.0
2017-Oct-12 19:29N 51°57' E 004°00'0 0.0
2017-Oct-12 18:59N 51°57' E 004°00'0 0.0
2017-Oct-12 18:29N 51°57' E 004°00'0 0.0
2017-Oct-12 17:59N 51°57' E 004°00'0 0.0
2017-Oct-12 17:29N 51°57' E 004°00'0 0.0
2017-Oct-12 16:59N 51°57' E 004°00'0 0.0
2017-Oct-12 16:29N 51°57' E 004°00'0 0.0
2017-Oct-12 15:59N 51°57' E 004°00'0 0.0
2017-Oct-12 15:29N 51°57' E 004°00'0 0.0
2017-Oct-12 14:59N 51°57' E 004°00'0 0.0
2017-Oct-12 14:29N 51°57' E 004°00'0 0.0
2017-Oct-12 13:59N 51°57' E 004°00'0 0.0
2017-Oct-12 13:29N 51°57' E 004°00'0 0.0
2017-Oct-12 12:59N 51°57' E 004°00'0 0.0
2017-Oct-12 12:29N 51°57' E 004°00'0 0.0
2017-Oct-12 11:59N 51°57' E 004°00'0 0.0
2017-Oct-12 11:29N 51°57' E 004°00'0 0.0
2017-Oct-12 10:59N 51°57' E 004°00'0 0.0
2017-Oct-12 10:29N 51°57' E 004°00'0 0.0
2017-Oct-12 09:59N 51°57' E 004°00'0 0.0
2017-Oct-12 09:29N 51°57' E 004°00'0 0.0
2017-Oct-12 08:59N 51°57' E 004°00'0 0.0
2017-Oct-12 08:29N 51°57' E 004°00'0 0.0
2017-Oct-12 07:59N 51°57' E 004°00'0 0.0
2017-Oct-12 07:29N 51°57' E 004°00'0 0.0
2017-Oct-12 06:59N 51°57' E 004°00'0 0.0
2017-Oct-12 06:29N 51°57' E 004°00'0 0.0
2017-Oct-12 05:59N 51°57' E 004°00'0 0.0
2017-Oct-12 05:29N 51°57' E 004°00'0 0.0
2017-Oct-12 04:59N 51°57' E 004°00'0 0.0
2017-Oct-12 04:29N 51°57' E 004°00'0 0.0
2017-Oct-12 03:59N 51°57' E 004°00'0 0.0
2017-Oct-12 03:29N 51°57' E 004°00'0 0.0
2017-Oct-12 02:59N 51°57' E 004°00'0 0.0
2017-Oct-12 02:29N 51°57' E 004°00'0 0.0
2017-Oct-12 01:59N 51°57' E 004°00'0 0.0
2017-Oct-12 01:29N 51°57' E 004°00'0 0.0
2017-Oct-12 00:59N 51°57' E 004°00'0 0.0
2017-Oct-12 00:29N 51°57' E 004°00'0 0.0
2017-Oct-11 23:59N 51°57' E 004°00'0 0.0
2017-Oct-11 23:29N 51°57' E 004°00'0 0.0
2017-Oct-11 22:59N 51°57' E 004°00'0 0.0
2017-Oct-11 22:29N 51°57' E 004°00'0 0.0
2017-Oct-11 21:59N 51°57' E 004°00'0 0.0
2017-Oct-11 21:29N 51°57' E 004°00'0 0.0
2017-Oct-11 20:59N 51°57' E 004°00'0 0.0
2017-Oct-11 20:29N 51°57' E 004°00'0 0.0
2017-Oct-11 19:59N 51°57' E 004°00'0 0.0
2017-Oct-11 19:29N 51°57' E 004°00'0 0.0
2017-Oct-11 18:59N 51°57' E 004°00'0 0.0
2017-Oct-11 18:29N 51°57' E 004°00'0 0.0
2017-Oct-11 17:59N 51°57' E 004°00'0 0.0
2017-Oct-11 17:29N 51°57' E 004°00'0 0.0
2017-Oct-11 16:59N 51°57' E 004°00'85 5.0
2017-Oct-11 00:00N 53°20' E 004°33'711.0
2017-Oct-10 23:22N 53°26' E 004°37'4 9.9
2017-Oct-10 23:00N 53°29' E 004°42'5 9.4
2017-Oct-10 22:30N 53°31' E 004°48'5 9.3
2017-Oct-10 22:00N 53°33' E 004°56'5 9.3
2017-Oct-10 21:31N 53°35' E 005°03'4 8.5
2017-Oct-10 21:01N 53°36' E 005°10'4 8.1
2017-Oct-10 20:30N 53°38' E 005°16'4 7.3
2017-Oct-10 20:01N 53°39' E 005°22'4 7.4
2017-Oct-10 19:29N 53°41' E 005°27'71 4.3
2017-Oct-10 03:01N 53°58' E 007°23'0 9.5
2017-Oct-10 03:00N 53°58' E 007°24'6 9.1
2017-Oct-10 02:21N 53°59' E 007°33'3 9.1
2017-Oct-10 02:00N 53°59' E 007°39'714.0
2017-Oct-10 01:30N 53°53' E 007°45'713.8
2017-Oct-10 01:00N 53°52' E 007°56'613.0
2017-Oct-10 00:30N 53°49' E 008°07'612.4
2017-Oct-10 00:00N 53°45' E 008°13'611.6
2017-Oct-09 23:30N 53°41' E 008°21'510.3
2017-Oct-09 23:00N 53°38' E 008°28'3 6.7
2017-Oct-09 22:30N 53°35' E 008°31'0 0.8
2017-Oct-09 22:01N 53°35' E 008°32'0 0.0
2017-Oct-09 21:30N 53°35' E 008°32'0 0.0
2017-Oct-09 21:01N 53°35' E 008°32'0 0.0
2017-Oct-09 20:30N 53°35' E 008°32'0 0.0
2017-Oct-09 20:00N 53°35' E 008°32'0 0.0
2017-Oct-09 19:31N 53°35' E 008°32'0 0.0
2017-Oct-09 19:00N 53°35' E 008°32'0 0.0
2017-Oct-09 18:30N 53°35' E 008°32'0 0.0
2017-Oct-09 18:01N 53°35' E 008°32'0 0.0
2017-Oct-09 17:30N 53°35' E 008°32'0 0.0
2017-Oct-09 17:00N 53°35' E 008°32'0 0.0
2017-Oct-09 16:30N 53°35' E 008°32'0 0.0
2017-Oct-09 16:00N 53°35' E 008°32'0 0.0
2017-Oct-09 15:30N 53°35' E 008°32'0 0.0
2017-Oct-09 15:00N 53°35' E 008°32'0 0.0
2017-Oct-09 14:30N 53°35' E 008°32'0 0.0
2017-Oct-09 14:01N 53°35' E 008°32'0 0.0
2017-Oct-09 13:30N 53°35' E 008°32'0 0.0
2017-Oct-09 13:00N 53°35' E 008°32'0 0.0
2017-Oct-09 12:30N 53°35' E 008°32'0 0.0
2017-Oct-09 12:01N 53°35' E 008°32'0 0.0
2017-Oct-09 11:30N 53°35' E 008°32'0 0.0
2017-Oct-09 11:00N 53°35' E 008°32'0 0.0
2017-Oct-09 10:30N 53°35' E 008°32'0 0.0
2017-Oct-09 10:00N 53°35' E 008°32'0 0.0
2017-Oct-09 09:30N 53°35' E 008°32'0 0.0
2017-Oct-09 09:00N 53°35' E 008°32'0 0.0
2017-Oct-09 08:30N 53°35' E 008°32'0 0.0
2017-Oct-09 08:00N 53°35' E 008°32'0 0.0
2017-Oct-09 07:30N 53°35' E 008°32'0 0.0
2017-Oct-09 07:00N 53°35' E 008°32'0 0.0
2017-Oct-09 06:31N 53°35' E 008°32'0 0.0
2017-Oct-09 06:01N 53°35' E 008°32'0 0.0
2017-Oct-09 05:31N 53°35' E 008°32'0 0.0
2017-Oct-09 05:00N 53°35' E 008°32'0 0.0
2017-Oct-09 04:30N 53°35' E 008°32'0 0.0
2017-Oct-09 04:00N 53°35' E 008°32'0 0.0
2017-Oct-09 03:30N 53°35' E 008°32'0 0.0
2017-Oct-09 03:01N 53°35' E 008°32'0 0.0
2017-Oct-09 02:30N 53°35' E 008°32'0 0.0
2017-Oct-09 02:01N 53°35' E 008°32'0 0.0
2017-Oct-09 01:31N 53°35' E 008°32'0 0.0
2017-Oct-09 01:00N 53°35' E 008°32'0 0.0
2017-Oct-09 00:30N 53°35' E 008°32'0 0.0
2017-Oct-09 00:01N 53°35' E 008°32'0 0.0
2017-Oct-08 23:31N 53°35' E 008°32'0 0.0
2017-Oct-08 23:00N 53°35' E 008°32'0 0.0
2017-Oct-08 22:30N 53°35' E 008°32'  

Dump ship's entire track history